Seawillow, Texas
Current Conditions -  °F | °C
As of 1:48 PM on Wednesday 28 Jan 2015 (Local Time) from KHYI Reporting Station
Clear Clear  
Wind Chill: 79°   Ceiling: Unl
Heat Index: 79°   Visibility: 10mi
Dew Point: 37°   Wind: 15mph
Humidity: 23%   Direction: 200°SSW
Pressure: 30.12"   Gusts: NA
Location:  29.8965°N, 97.6713°W
Report Text: KHYI 281948Z 20013KT 10SM CLR 26/03 A3012
Loading
Personal Weather Stations






























Interactive Weather Map New forecast layout! Learn more

10-Day Weather Forecast

Advertisements
Track Severe Weather on mobile